logo
Rechercher aéroport 
image banner adimage banner adimage banner ad
image banner ad

YXBC - Beechmont

Situé à Witheren, Australia

ICAO - , IATA -

Données fournies par Airmate  

Information générale

Coordonnées: S28°4'60" E153°12'0"
Élévation : 1302 feet MSL.
Variation magnétique : 11° East
Voir autres Aéroports à Queensland

Données opérationnelles

Special qualification required
Heure actuelle UTC:
Heure actuelle locale:
Météo à : YBCG - Gold Coast ( 31 km )
METAR: YBCG 130400Z AUTO 20007KT 9999 // NCD 21/09 Q1007 RF00.0/000.0
TAF: TAF AMD YBCG 130239Z 1302/1400 23008KT CAVOK
Voir NOTAMs / SUP AIP / TFR affectant cet aéroport [VIEW]
Fréquences de communication: [VIEW]

Pistes:

Coordonnées de l'aéroport

Adresse: Witheren Australia

Vue satellite de YXBC